world map with XFW marked

XFW - Airport

This information may not be accurate or current and is not valid for navigation or flight planning. No warranty of fitness for any purpose is made or implied.

flag of Hamburgflag of Germany

Donate via PayPal

Additional information is available on the NEW Great Circle Mapper

Location
City:  Hamburg, Hamburg, Germany
Name:Finkenwerder
ICAO / IATA:EDHI / XFW

Details
Type:Airport (Flugplatz, Airfield)
Use:Public/Civil
Latitude:53°32'09"N (53.535886)
Longitude:9°50'13"E (9.837025)
Datum:WGS 1984
Elevation:22 ft (7 m)
Runways:1
Longest:8629 × 148 ft (2630 × 45 m)

Time
Timezone:UTC+1 (DST+4)
Local Time:

Weather
METAR:EDHI  041350Z 20013KT CAVOK 04/M02 Q1022
TAF:EDHI  (expired)

Related Locations
Nearby:
Farthest:CHT: 11701 mi / 18831 km
Waitangi [Tuuta], CIT, NZ

Find:

   beyond  
but within

Other Information
Maps:
Sources:

  


 


Great Circle Mapper   Great Circle Mapper
Great Circle Mapper FAQ   Great Circle Mapper FAQ
  Karl's Home Page
KLSē   KLSē Home
   GC on Facebook
Airlines of the World   Airlines of the World
Donate via PayPal


Copyright © 2004-2020, Karl L. Swartz. All rights reserved.
All trademarks mentioned herein belong to their respective owners.

Please see credits for attribution and copyright information.

Karl Swartz <karl@kls2.com>
  Powered by FreeBSD
Valid HTML 4.01!
Labeled with ICRA
hCard Microformat
Geo Microformat